DLH280 LFPG-LEMD
Flight info
| Callsign | DLH280 |
|---|---|
| Flight time | 1h 41m |
| Altitude | 33000 |
| Route | AGOPA DCT ARKIP DCT ARNAV DCT LMG DCT UVELI DCT OSMOB DCT ARVID DCT PPN DCT NOLSA DCT ALEPO DCT VASUM DCT BANEV |
| Aircraft | A388/J-SADE2E3FGHIJ3J4J5M1RWXY/LB1D1 |
Departure
| Time | 2026-05-04 23:36 |
|---|---|
| Airport | Charles de Gaulle International Airport (LFPG) |
Arrival
| Time | 2026-05-05 01:17 |
|---|---|
| Airport | Adolfo Suárez Madrid–Barajas Airport (LEMD) |
| Time | Latitude | Longitude | Altitude | Speed | Heading |
|---|---|---|---|---|---|
| 2026-05-04 22:43 | 49.00639 | 2.58947 | 358 ft | 0 kts | 85° |
| 2026-05-04 23:14 | 49.00638 | 2.58938 | 358 ft | 2 kts | 85° |
| 2026-05-04 23:15 | 49.00637 | 2.58919 | 367 ft | 2 kts | 85° |
| 2026-05-04 23:15 | 49.00636 | 2.58900 | 366 ft | 2 kts | 81° |
| 2026-05-04 23:15 | 49.00631 | 2.58881 | 367 ft | 2 kts | 65° |
| 2026-05-04 23:15 | 49.00624 | 2.58865 | 363 ft | 2 kts | 49° |
| 2026-05-04 23:16 | 49.00613 | 2.58854 | 365 ft | 2 kts | 32° |
| 2026-05-04 23:16 | 49.00601 | 2.58847 | 366 ft | 2 kts | 17° |
| 2026-05-04 23:16 | 49.00589 | 2.58844 | 365 ft | 2 kts | 5° |
| 2026-05-04 23:16 | 49.00576 | 2.58845 | 366 ft | 2 kts | 354° |
| 2026-05-04 23:17 | 49.00573 | 2.58846 | 366 ft | 0 kts | 352° |
| 2026-05-04 23:18 | 49.00583 | 2.58843 | 365 ft | 3 kts | 351° |
| 2026-05-04 23:19 | 49.00618 | 2.58835 | 367 ft | 7 kts | 352° |
| 2026-05-04 23:19 | 49.00671 | 2.58824 | 366 ft | 9 kts | 354° |
| 2026-05-04 23:19 | 49.00742 | 2.58814 | 360 ft | 11 kts | 355° |
| 2026-05-04 23:19 | 49.00816 | 2.58786 | 365 ft | 10 kts | 320° |
| 2026-05-04 23:20 | 49.00848 | 2.58692 | 362 ft | 11 kts | 289° |
| 2026-05-04 23:20 | 49.00899 | 2.58615 | 366 ft | 11 kts | 326° |
| 2026-05-04 23:20 | 49.00928 | 2.58522 | 365 ft | 11 kts | 269° |
| 2026-05-04 23:20 | 49.00923 | 2.58396 | 368 ft | 13 kts | 266° |
| 2026-05-04 23:21 | 49.00916 | 2.58248 | 363 ft | 15 kts | 265° |
| 2026-05-04 23:21 | 49.00941 | 2.58110 | 369 ft | 12 kts | 329° |
| 2026-05-04 23:21 | 49.01029 | 2.58087 | 363 ft | 14 kts | 355° |
| 2026-05-04 23:21 | 49.01128 | 2.58073 | 361 ft | 15 kts | 355° |
| 2026-05-04 23:22 | 49.01231 | 2.58059 | 365 ft | 15 kts | 355° |
| 2026-05-04 23:22 | 49.01342 | 2.58044 | 366 ft | 16 kts | 355° |
| 2026-05-04 23:22 | 49.01453 | 2.58032 | 369 ft | 16 kts | 356° |
| 2026-05-04 23:22 | 49.01570 | 2.58020 | 366 ft | 17 kts | 355° |
| 2026-05-04 23:23 | 49.01688 | 2.58006 | 360 ft | 17 kts | 355° |
| 2026-05-04 23:23 | 49.01805 | 2.57991 | 365 ft | 17 kts | 355° |
| 2026-05-04 23:23 | 49.01918 | 2.57942 | 369 ft | 17 kts | 327° |
| 2026-05-04 23:23 | 49.01989 | 2.57802 | 365 ft | 17 kts | 287° |
| 2026-05-04 23:24 | 49.01997 | 2.57630 | 362 ft | 17 kts | 265° |
| 2026-05-04 23:24 | 49.01988 | 2.57437 | 365 ft | 18 kts | 266° |
| 2026-05-04 23:24 | 49.01977 | 2.57239 | 366 ft | 19 kts | 265° |
| 2026-05-04 23:24 | 49.01966 | 2.57034 | 365 ft | 20 kts | 265° |
| 2026-05-04 23:25 | 49.01955 | 2.56824 | 360 ft | 20 kts | 265° |
| 2026-05-04 23:25 | 49.01943 | 2.56611 | 365 ft | 20 kts | 264° |
| 2026-05-04 23:25 | 49.01930 | 2.56402 | 367 ft | 19 kts | 265° |
| 2026-05-04 23:25 | 49.01920 | 2.56198 | 364 ft | 20 kts | 265° |
| 2026-05-04 23:26 | 49.01913 | 2.56055 | 360 ft | 20 kts | 266° |
| 2026-05-04 23:26 | 49.01901 | 2.55828 | 367 ft | 21 kts | 265° |
| 2026-05-04 23:26 | 49.01890 | 2.55609 | 366 ft | 21 kts | 265° |
| 2026-05-04 23:26 | 49.01877 | 2.55390 | 363 ft | 21 kts | 265° |
| 2026-05-04 23:27 | 49.01865 | 2.55168 | 365 ft | 21 kts | 265° |
| 2026-05-04 23:27 | 49.01852 | 2.54926 | 363 ft | 21 kts | 265° |
| 2026-05-04 23:27 | 49.01839 | 2.54700 | 365 ft | 21 kts | 265° |
| 2026-05-04 23:27 | 49.01828 | 2.54486 | 366 ft | 20 kts | 266° |
| 2026-05-04 23:28 | 49.01819 | 2.54264 | 365 ft | 21 kts | 266° |
| 2026-05-04 23:28 | 49.01807 | 2.54047 | 366 ft | 19 kts | 264° |
| 2026-05-04 23:28 | 49.01794 | 2.53844 | 364 ft | 20 kts | 265° |
| 2026-05-04 23:28 | 49.01785 | 2.53655 | 365 ft | 18 kts | 265° |
| 2026-05-04 23:29 | 49.01775 | 2.53464 | 365 ft | 19 kts | 265° |
| 2026-05-04 23:29 | 49.01764 | 2.53282 | 359 ft | 17 kts | 265° |
| 2026-05-04 23:29 | 49.01753 | 2.53093 | 364 ft | 18 kts | 265° |
| 2026-05-04 23:29 | 49.01743 | 2.52897 | 365 ft | 19 kts | 265° |
| 2026-05-04 23:30 | 49.01732 | 2.52694 | 363 ft | 20 kts | 265° |
| 2026-05-04 23:30 | 49.01721 | 2.52485 | 362 ft | 20 kts | 265° |
| 2026-05-04 23:30 | 49.01710 | 2.52271 | 364 ft | 20 kts | 265° |
| 2026-05-04 23:30 | 49.01699 | 2.52055 | 359 ft | 21 kts | 265° |
| 2026-05-04 23:31 | 49.01687 | 2.51835 | 366 ft | 21 kts | 265° |
| 2026-05-04 23:31 | 49.01674 | 2.51607 | 362 ft | 22 kts | 265° |
| 2026-05-04 23:31 | 49.01661 | 2.51374 | 357 ft | 21 kts | 269° |
| 2026-05-04 23:31 | 49.01706 | 2.51281 | 366 ft | 7 kts | 348° |
| 2026-05-04 23:32 | 49.01755 | 2.51273 | 363 ft | 8 kts | 355° |
| 2026-05-04 23:32 | 49.01820 | 2.51265 | 360 ft | 10 kts | 355° |
| 2026-05-04 23:32 | 49.01889 | 2.51255 | 365 ft | 6 kts | 354° |
| 2026-05-04 23:32 | 49.01938 | 2.51250 | 362 ft | 0 kts | 6° |
| 2026-05-04 23:33 | 49.01944 | 2.51251 | 363 ft | 3 kts | 7° |
| 2026-05-04 23:33 | 49.01974 | 2.51261 | 365 ft | 6 kts | 19° |
| 2026-05-04 23:34 | 49.02017 | 2.51298 | 368 ft | 8 kts | 42° |
| 2026-05-04 23:34 | 49.02060 | 2.51375 | 366 ft | 10 kts | 61° |
| 2026-05-04 23:34 | 49.02068 | 2.51412 | 364 ft | 0 kts | 85° |
| 2026-05-04 23:34 | 49.02082 | 2.51649 | 363 ft | 58 kts | 84° |
| 2026-05-04 23:35 | 49.02098 | 2.51906 | 361 ft | 5 kts | 84° |
| 2026-05-04 23:35 | 49.02101 | 2.51953 | 363 ft | 25 kts | 85° |
| 2026-05-04 23:35 | 49.02137 | 2.52670 | 366 ft | 109 kts | 85° |
| 2026-05-04 23:35 | 49.02218 | 2.54169 | 366 ft | 168 kts | 85° |
| 2026-05-04 23:36 | 49.02306 | 2.56063 | 728 ft | 182 kts | 84° |
| 2026-05-04 23:36 | 49.02406 | 2.57986 | 1308 ft | 185 kts | 84° |
| 2026-05-04 23:36 | 49.02526 | 2.59969 | 1900 ft | 189 kts | 84° |
| 2026-05-04 23:36 | 49.02666 | 2.61976 | 2356 ft | 198 kts | 84° |
| 2026-05-04 23:37 | 49.02794 | 2.64135 | 2650 ft | 211 kts | 85° |
| 2026-05-04 23:37 | 49.02903 | 2.66428 | 2740 ft | 222 kts | 86° |
| 2026-05-04 23:37 | 49.03019 | 2.68894 | 2885 ft | 246 kts | 86° |
| 2026-05-04 23:37 | 49.03146 | 2.71542 | 3286 ft | 261 kts | 86° |
| 2026-05-04 23:38 | 49.03285 | 2.74326 | 3946 ft | 264 kts | 85° |
| 2026-05-04 23:38 | 49.03428 | 2.77137 | 4642 ft | 267 kts | 85° |
| 2026-05-04 23:38 | 49.03574 | 2.79979 | 5323 ft | 270 kts | 86° |
| 2026-05-04 23:38 | 49.03722 | 2.82854 | 5988 ft | 274 kts | 86° |
| 2026-05-04 23:39 | 49.03868 | 2.85728 | 6649 ft | 277 kts | 86° |
| 2026-05-04 23:39 | 49.04017 | 2.88658 | 7290 ft | 279 kts | 86° |
| 2026-05-04 23:39 | 49.04168 | 2.91631 | 7886 ft | 282 kts | 86° |
| 2026-05-04 23:39 | 49.04280 | 2.94650 | 8478 ft | 287 kts | 95° |
| 2026-05-04 23:40 | 49.03738 | 2.97550 | 9246 ft | 286 kts | 121° |
| 2026-05-04 23:40 | 49.02422 | 2.99816 | 9943 ft | 287 kts | 147° |
| 2026-05-04 23:40 | 49.00577 | 3.01050 | 10318 ft | 300 kts | 170° |
| 2026-05-04 23:40 | 48.98444 | 3.01274 | 10520 ft | 317 kts | 181° |
| 2026-05-04 23:41 | 48.96203 | 3.01189 | 11002 ft | 322 kts | 182° |
| 2026-05-04 23:41 | 48.94019 | 3.01119 | 12113 ft | 306 kts | 181° |
| 2026-05-04 23:41 | 48.91967 | 3.00800 | 13294 ft | 288 kts | 196° |
| 2026-05-04 23:41 | 48.90194 | 2.99592 | 14302 ft | 276 kts | 214° |
| 2026-05-04 23:42 | 48.88785 | 2.97605 | 14904 ft | 279 kts | 233° |
| 2026-05-04 23:42 | 48.87926 | 2.95110 | 15421 ft | 284 kts | 251° |
| 2026-05-04 23:42 | 48.87517 | 2.92089 | 15697 ft | 297 kts | 259° |
| 2026-05-04 23:42 | 48.87172 | 2.88983 | 16239 ft | 299 kts | 258° |
| 2026-05-04 23:43 | 48.86808 | 2.85860 | 16783 ft | 301 kts | 258° |
| 2026-05-04 23:43 | 48.86433 | 2.82722 | 17296 ft | 303 kts | 258° |
| 2026-05-04 23:43 | 48.86052 | 2.79568 | 17800 ft | 305 kts | 258° |
| 2026-05-04 23:43 | 48.85664 | 2.76380 | 18304 ft | 308 kts | 257° |
| 2026-05-04 23:44 | 48.85274 | 2.73168 | 18749 ft | 309 kts | 257° |
| 2026-05-04 23:44 | 48.84896 | 2.70066 | 19172 ft | 311 kts | 257° |
| 2026-05-04 23:44 | 48.84629 | 2.67887 | 19435 ft | 315 kts | 257° |
| 2026-05-04 23:44 | 48.84174 | 2.64553 | 19593 ft | 325 kts | 251° |
| 2026-05-04 23:45 | 48.83349 | 2.61349 | 20038 ft | 325 kts | 241° |
| 2026-05-04 23:45 | 48.82163 | 2.58450 | 20486 ft | 324 kts | 232° |
| 2026-05-04 23:45 | 48.80849 | 2.55710 | 20911 ft | 326 kts | 233° |
| 2026-05-04 23:45 | 48.79529 | 2.52896 | 21362 ft | 328 kts | 233° |
| 2026-05-04 23:46 | 48.78186 | 2.50018 | 21674 ft | 335 kts | 233° |
| 2026-05-04 23:46 | 48.76812 | 2.47080 | 21799 ft | 347 kts | 233° |
| 2026-05-04 23:46 | 48.75428 | 2.44130 | 21899 ft | 358 kts | 233° |
| 2026-05-04 23:46 | 48.73878 | 2.41075 | 22022 ft | 368 kts | 226° |
| 2026-05-04 23:47 | 48.72022 | 2.38387 | 22383 ft | 371 kts | 218° |
| 2026-05-04 23:47 | 48.69981 | 2.36208 | 22827 ft | 371 kts | 210° |
| 2026-05-04 23:47 | 48.67736 | 2.34228 | 23238 ft | 374 kts | 210° |
| 2026-05-04 23:47 | 48.65496 | 2.32220 | 23682 ft | 375 kts | 210° |
| 2026-05-04 23:48 | 48.63251 | 2.30196 | 24092 ft | 376 kts | 210° |
| 2026-05-04 23:48 | 48.61007 | 2.28171 | 24488 ft | 377 kts | 210° |
| 2026-05-04 23:48 | 48.58755 | 2.26144 | 24862 ft | 378 kts | 210° |
| 2026-05-04 23:48 | 48.56295 | 2.23935 | 25313 ft | 379 kts | 210° |
| 2026-05-04 23:49 | 48.54013 | 2.21889 | 25726 ft | 380 kts | 210° |
| 2026-05-04 23:49 | 48.51736 | 2.19851 | 26140 ft | 382 kts | 210° |
| 2026-05-04 23:49 | 48.49444 | 2.17806 | 26563 ft | 383 kts | 209° |
| 2026-05-04 23:49 | 48.47136 | 2.15776 | 26998 ft | 385 kts | 209° |
| 2026-05-04 23:50 | 48.44821 | 2.13750 | 27440 ft | 386 kts | 209° |
| 2026-05-04 23:50 | 48.42489 | 2.11712 | 27876 ft | 388 kts | 209° |
| 2026-05-04 23:50 | 48.40145 | 2.09662 | 28294 ft | 390 kts | 209° |
| 2026-05-04 23:50 | 48.37796 | 2.07609 | 28741 ft | 391 kts | 209° |
| 2026-05-04 23:51 | 48.35439 | 2.05550 | 29183 ft | 393 kts | 208° |
| 2026-05-04 23:51 | 48.33063 | 2.03478 | 29626 ft | 395 kts | 207° |
| 2026-05-04 23:51 | 48.30559 | 2.01779 | 30028 ft | 396 kts | 198° |
| 2026-05-04 23:51 | 48.27880 | 2.00765 | 30453 ft | 397 kts | 189° |
| 2026-05-04 23:52 | 48.25127 | 2.00448 | 30875 ft | 399 kts | 180° |
| 2026-05-04 23:52 | 48.22351 | 2.00569 | 31276 ft | 401 kts | 180° |
| 2026-05-04 23:52 | 48.19558 | 2.00662 | 31688 ft | 402 kts | 180° |
| 2026-05-04 23:52 | 48.16759 | 2.00741 | 32143 ft | 403 kts | 181° |
| 2026-05-04 23:53 | 48.13942 | 2.00817 | 32551 ft | 405 kts | 180° |
| 2026-05-04 23:53 | 48.11115 | 2.00894 | 32976 ft | 407 kts | 180° |
| 2026-05-04 23:53 | 48.08288 | 2.00974 | 33364 ft | 409 kts | 180° |
| 2026-05-04 23:53 | 48.05429 | 2.01089 | 33525 ft | 415 kts | 180° |
| 2026-05-04 23:54 | 48.02508 | 2.01270 | 33648 ft | 422 kts | 179° |
| 2026-05-04 23:54 | 47.99594 | 2.01465 | 34279 ft | 416 kts | 179° |
| 2026-05-04 23:54 | 47.96716 | 2.01654 | 34748 ft | 413 kts | 179° |
| 2026-05-04 23:54 | 47.93829 | 2.01834 | 34898 ft | 419 kts | 179° |
| 2026-05-04 23:55 | 47.88009 | 2.02184 | 34911 ft | 415 kts | 179° |
| 2026-05-04 23:56 | 47.79349 | 2.02696 | 34910 ft | 416 kts | 179° |
| 2026-05-04 23:56 | 47.73568 | 2.03037 | 34905 ft | 416 kts | 179° |
| 2026-05-04 23:57 | 47.67778 | 2.03317 | 34899 ft | 415 kts | 182° |
| 2026-05-04 23:57 | 47.62049 | 2.02342 | 34892 ft | 414 kts | 192° |
| 2026-05-04 23:58 | 47.56563 | 1.99760 | 34887 ft | 415 kts | 201° |
| 2026-05-04 23:58 | 47.51180 | 1.96589 | 34892 ft | 422 kts | 200° |
| 2026-05-04 23:59 | 47.45639 | 1.93382 | 34890 ft | 429 kts | 200° |
| 2026-05-04 23:59 | 47.40084 | 1.90178 | 34888 ft | 428 kts | 200° |
| 2026-05-05 00:00 | 47.34409 | 1.86914 | 34887 ft | 445 kts | 200° |
| 2026-05-05 00:00 | 47.28693 | 1.83629 | 34885 ft | 443 kts | 200° |
| 2026-05-05 00:01 | 47.22909 | 1.80314 | 34889 ft | 442 kts | 200° |
| 2026-05-05 00:01 | 47.17207 | 1.77066 | 34891 ft | 442 kts | 200° |
| 2026-05-05 00:02 | 47.11435 | 1.73820 | 34894 ft | 442 kts | 200° |
| 2026-05-05 00:02 | 47.05689 | 1.70591 | 34906 ft | 441 kts | 200° |
| 2026-05-05 00:03 | 46.99948 | 1.67370 | 34912 ft | 441 kts | 199° |
| 2026-05-05 00:03 | 46.94205 | 1.64155 | 34910 ft | 441 kts | 199° |
| 2026-05-05 00:04 | 46.88477 | 1.60955 | 34904 ft | 441 kts | 199° |
| 2026-05-05 00:04 | 46.82740 | 1.57758 | 34903 ft | 441 kts | 199° |
| 2026-05-05 00:05 | 46.76991 | 1.54561 | 34901 ft | 441 kts | 199° |
| 2026-05-05 00:05 | 46.71253 | 1.51378 | 34901 ft | 441 kts | 199° |
| 2026-05-05 00:06 | 46.65507 | 1.48198 | 34900 ft | 442 kts | 199° |
| 2026-05-05 00:06 | 46.59751 | 1.45019 | 34900 ft | 443 kts | 199° |
| 2026-05-05 00:07 | 46.54009 | 1.41856 | 34899 ft | 444 kts | 199° |
| 2026-05-05 00:07 | 46.48219 | 1.38673 | 34906 ft | 445 kts | 199° |
| 2026-05-05 00:08 | 46.42424 | 1.35495 | 34907 ft | 446 kts | 199° |
| 2026-05-05 00:08 | 46.37554 | 1.32829 | 34915 ft | 448 kts | 199° |
| 2026-05-05 00:09 | 46.31715 | 1.29640 | 34921 ft | 449 kts | 199° |
| 2026-05-05 00:09 | 46.25852 | 1.26446 | 34920 ft | 450 kts | 199° |
| 2026-05-05 00:10 | 46.19997 | 1.23262 | 34914 ft | 450 kts | 199° |
| 2026-05-05 00:10 | 46.14166 | 1.20100 | 34916 ft | 451 kts | 199° |
| 2026-05-05 00:11 | 46.08287 | 1.16918 | 34910 ft | 451 kts | 199° |
| 2026-05-05 00:11 | 46.02405 | 1.13742 | 34904 ft | 452 kts | 199° |
| 2026-05-05 00:12 | 45.96496 | 1.10558 | 34905 ft | 453 kts | 199° |
| 2026-05-05 00:12 | 45.90591 | 1.07384 | 34907 ft | 453 kts | 199° |
| 2026-05-05 00:13 | 45.84708 | 1.04101 | 34911 ft | 454 kts | 204° |
| 2026-05-05 00:13 | 45.79240 | 0.99599 | 34912 ft | 457 kts | 213° |
| 2026-05-05 00:14 | 45.74284 | 0.93840 | 34919 ft | 459 kts | 218° |
| 2026-05-05 00:14 | 45.69390 | 0.87947 | 34928 ft | 459 kts | 218° |
| 2026-05-05 00:15 | 45.64479 | 0.82083 | 34934 ft | 460 kts | 218° |
| 2026-05-05 00:15 | 45.59559 | 0.76228 | 34947 ft | 460 kts | 218° |
| 2026-05-05 00:16 | 45.54599 | 0.70339 | 34952 ft | 461 kts | 218° |
| 2026-05-05 00:16 | 45.49702 | 0.64536 | 34953 ft | 460 kts | 218° |
| 2026-05-05 00:17 | 45.44773 | 0.58712 | 34950 ft | 459 kts | 218° |
| 2026-05-05 00:17 | 45.39852 | 0.52909 | 34944 ft | 459 kts | 218° |
| 2026-05-05 00:18 | 45.34931 | 0.47119 | 34934 ft | 459 kts | 218° |
| 2026-05-05 00:18 | 45.30006 | 0.41338 | 34933 ft | 459 kts | 218° |
| 2026-05-05 00:19 | 45.25082 | 0.35573 | 34941 ft | 459 kts | 218° |
| 2026-05-05 00:19 | 45.20154 | 0.29815 | 34954 ft | 459 kts | 218° |
| 2026-05-05 00:20 | 45.15213 | 0.24056 | 34956 ft | 459 kts | 218° |
| 2026-05-05 00:20 | 45.10311 | 0.18357 | 34962 ft | 459 kts | 218° |
| 2026-05-05 00:21 | 45.05367 | 0.12620 | 34960 ft | 459 kts | 218° |
| 2026-05-05 00:21 | 45.00423 | 0.06897 | 34960 ft | 459 kts | 218° |
| 2026-05-05 00:22 | 44.95478 | 0.01186 | 34965 ft | 459 kts | 218° |
| 2026-05-05 00:22 | 44.90534 | -0.04509 | 34969 ft | 459 kts | 218° |
| 2026-05-05 00:23 | 44.85590 | -0.10192 | 34973 ft | 458 kts | 218° |
| 2026-05-05 00:23 | 44.80645 | -0.15863 | 34971 ft | 458 kts | 218° |
| 2026-05-05 00:24 | 44.75700 | -0.21522 | 34971 ft | 458 kts | 218° |
| 2026-05-05 00:24 | 44.70748 | -0.27175 | 34975 ft | 458 kts | 218° |
| 2026-05-05 00:25 | 44.65753 | -0.32739 | 34978 ft | 458 kts | 214° |
| 2026-05-05 00:25 | 44.60278 | -0.37275 | 34978 ft | 458 kts | 207° |
| 2026-05-05 00:26 | 44.54603 | -0.41409 | 34978 ft | 457 kts | 207° |
| 2026-05-05 00:26 | 44.49122 | -0.45434 | 34983 ft | 457 kts | 207° |
| 2026-05-05 00:27 | 44.43479 | -0.49570 | 34983 ft | 457 kts | 207° |
| 2026-05-05 00:27 | 44.37830 | -0.53701 | 34983 ft | 457 kts | 207° |
| 2026-05-05 00:28 | 44.32187 | -0.57817 | 34984 ft | 457 kts | 207° |
| 2026-05-05 00:28 | 44.26536 | -0.61930 | 34984 ft | 457 kts | 207° |
| 2026-05-05 00:29 | 44.20890 | -0.66030 | 34986 ft | 457 kts | 207° |
| 2026-05-05 00:29 | 44.15277 | -0.70098 | 34990 ft | 457 kts | 207° |
| 2026-05-05 00:30 | 44.09593 | -0.74208 | 34988 ft | 457 kts | 207° |
| 2026-05-05 00:30 | 44.03973 | -0.78263 | 34991 ft | 458 kts | 208° |
| 2026-05-05 00:31 | 43.98281 | -0.82361 | 34990 ft | 458 kts | 208° |
| 2026-05-05 00:31 | 43.92616 | -0.86431 | 34994 ft | 458 kts | 208° |
| 2026-05-05 00:32 | 43.87000 | -0.90457 | 34993 ft | 458 kts | 208° |
| 2026-05-05 00:32 | 43.81338 | -0.94507 | 34992 ft | 458 kts | 208° |
| 2026-05-05 00:33 | 43.75681 | -0.98545 | 34992 ft | 457 kts | 208° |
| 2026-05-05 00:33 | 43.70023 | -1.02575 | 34991 ft | 457 kts | 208° |
| 2026-05-05 00:34 | 43.64364 | -1.06597 | 34993 ft | 457 kts | 208° |
| 2026-05-05 00:34 | 43.58704 | -1.10611 | 34993 ft | 457 kts | 208° |
| 2026-05-05 00:35 | 43.53053 | -1.14610 | 34996 ft | 457 kts | 208° |
| 2026-05-05 00:35 | 43.47386 | -1.18613 | 34999 ft | 456 kts | 208° |
| 2026-05-05 00:36 | 43.41739 | -1.22593 | 35010 ft | 456 kts | 208° |
| 2026-05-05 00:36 | 43.36077 | -1.26574 | 35012 ft | 456 kts | 208° |
| 2026-05-05 00:37 | 43.30432 | -1.30536 | 35012 ft | 456 kts | 208° |
| 2026-05-05 00:37 | 43.24776 | -1.34497 | 35013 ft | 456 kts | 208° |
| 2026-05-05 00:38 | 43.19123 | -1.38447 | 35007 ft | 456 kts | 208° |
| 2026-05-05 00:38 | 43.13469 | -1.42390 | 35013 ft | 456 kts | 208° |
| 2026-05-05 00:39 | 43.07803 | -1.46335 | 35011 ft | 456 kts | 209° |
| 2026-05-05 00:39 | 43.02146 | -1.50273 | 35015 ft | 456 kts | 209° |
| 2026-05-05 00:40 | 42.96487 | -1.54209 | 35020 ft | 456 kts | 209° |
| 2026-05-05 00:40 | 42.90855 | -1.58117 | 35023 ft | 457 kts | 209° |
| 2026-05-05 00:41 | 42.85181 | -1.62045 | 35023 ft | 457 kts | 209° |
| 2026-05-05 00:41 | 42.79503 | -1.65969 | 35019 ft | 457 kts | 209° |
| 2026-05-05 00:42 | 42.74752 | -1.69245 | 35031 ft | 456 kts | 209° |
| 2026-05-05 00:42 | 42.69107 | -1.73096 | 35024 ft | 456 kts | 209° |
| 2026-05-05 00:43 | 42.63419 | -1.76908 | 35031 ft | 456 kts | 209° |
| 2026-05-05 00:43 | 42.57713 | -1.80732 | 35024 ft | 456 kts | 209° |
| 2026-05-05 00:44 | 42.52026 | -1.84543 | 35029 ft | 455 kts | 209° |
| 2026-05-05 00:44 | 42.46350 | -1.88339 | 35013 ft | 455 kts | 209° |
| 2026-05-05 00:45 | 42.40672 | -1.92129 | 35007 ft | 454 kts | 209° |
| 2026-05-05 00:45 | 42.34999 | -1.95907 | 35019 ft | 454 kts | 209° |
| 2026-05-05 00:46 | 42.29332 | -1.99680 | 35003 ft | 453 kts | 210° |
| 2026-05-05 00:46 | 42.23730 | -2.03403 | 35005 ft | 453 kts | 210° |
| 2026-05-05 00:47 | 42.18059 | -2.07155 | 35007 ft | 452 kts | 210° |
| 2026-05-05 00:47 | 42.12381 | -2.10904 | 35002 ft | 451 kts | 210° |
| 2026-05-05 00:48 | 42.06774 | -2.14599 | 35003 ft | 451 kts | 210° |
| 2026-05-05 00:48 | 42.01119 | -2.18320 | 35010 ft | 451 kts | 210° |
| 2026-05-05 00:49 | 41.95481 | -2.22021 | 35016 ft | 450 kts | 210° |
| 2026-05-05 00:49 | 41.89851 | -2.25710 | 35016 ft | 450 kts | 210° |
| 2026-05-05 00:50 | 41.84220 | -2.29392 | 35019 ft | 449 kts | 210° |
| 2026-05-05 00:50 | 41.78600 | -2.33060 | 35020 ft | 449 kts | 210° |
| 2026-05-05 00:50 | 41.75805 | -2.34879 | 34846 ft | 443 kts | 210° |
| 2026-05-05 00:51 | 41.73036 | -2.36680 | 34327 ft | 441 kts | 211° |
| 2026-05-05 00:51 | 41.70269 | -2.38482 | 33453 ft | 443 kts | 211° |
| 2026-05-05 00:51 | 41.67983 | -2.39970 | 32810 ft | 443 kts | 211° |
| 2026-05-05 00:51 | 41.64904 | -2.41967 | 32276 ft | 435 kts | 211° |
| 2026-05-05 00:52 | 41.62521 | -2.43507 | 32012 ft | 425 kts | 211° |
| 2026-05-05 00:52 | 41.59878 | -2.45218 | 31456 ft | 421 kts | 211° |
| 2026-05-05 00:52 | 41.57243 | -2.46926 | 30866 ft | 418 kts | 211° |
| 2026-05-05 00:52 | 41.54667 | -2.48593 | 30327 ft | 414 kts | 211° |
| 2026-05-05 00:53 | 41.52090 | -2.50261 | 29722 ft | 410 kts | 211° |
| 2026-05-05 00:53 | 41.49536 | -2.51911 | 29189 ft | 404 kts | 211° |
| 2026-05-05 00:53 | 41.47017 | -2.53535 | 28653 ft | 399 kts | 211° |
| 2026-05-05 00:53 | 41.44542 | -2.55131 | 28128 ft | 394 kts | 211° |
| 2026-05-05 00:54 | 41.42090 | -2.56709 | 27623 ft | 388 kts | 211° |
| 2026-05-05 00:54 | 41.39671 | -2.58266 | 27118 ft | 383 kts | 211° |
| 2026-05-05 00:54 | 41.37289 | -2.59799 | 26637 ft | 379 kts | 211° |
| 2026-05-05 00:54 | 41.34907 | -2.61264 | 26125 ft | 377 kts | 206° |
| 2026-05-05 00:55 | 41.32377 | -2.62259 | 25631 ft | 380 kts | 197° |
| 2026-05-05 00:55 | 41.29754 | -2.62676 | 25103 ft | 385 kts | 188° |
| 2026-05-05 00:55 | 41.27039 | -2.62526 | 24630 ft | 387 kts | 182° |
| 2026-05-05 00:55 | 41.24368 | -2.62252 | 23994 ft | 390 kts | 182° |
| 2026-05-05 00:56 | 41.21633 | -2.62008 | 23362 ft | 392 kts | 182° |
| 2026-05-05 00:56 | 41.18918 | -2.61769 | 22986 ft | 390 kts | 182° |
| 2026-05-05 00:56 | 41.16219 | -2.61532 | 22463 ft | 391 kts | 182° |
| 2026-05-05 00:56 | 41.13497 | -2.61294 | 21927 ft | 390 kts | 182° |
| 2026-05-05 00:57 | 41.10794 | -2.61053 | 21383 ft | 387 kts | 182° |
| 2026-05-05 00:57 | 41.08116 | -2.60813 | 20870 ft | 388 kts | 182° |
| 2026-05-05 00:57 | 41.05399 | -2.60574 | 20336 ft | 392 kts | 181° |
| 2026-05-05 00:57 | 41.02673 | -2.60332 | 19806 ft | 392 kts | 181° |
| 2026-05-05 00:58 | 40.99962 | -2.60088 | 19252 ft | 389 kts | 181° |
| 2026-05-05 00:58 | 40.97263 | -2.59847 | 18632 ft | 387 kts | 181° |
| 2026-05-05 00:58 | 40.94578 | -2.59609 | 17992 ft | 385 kts | 181° |
| 2026-05-05 00:58 | 40.91909 | -2.59374 | 17366 ft | 382 kts | 181° |
| 2026-05-05 00:59 | 40.89264 | -2.59140 | 16736 ft | 379 kts | 180° |
| 2026-05-05 00:59 | 40.86635 | -2.58907 | 16101 ft | 377 kts | 180° |
| 2026-05-05 00:59 | 40.84053 | -2.59028 | 15485 ft | 368 kts | 195° |
| 2026-05-05 00:59 | 40.81680 | -2.60145 | 14876 ft | 359 kts | 212° |
| 2026-05-05 01:00 | 40.79734 | -2.62143 | 14274 ft | 354 kts | 227° |
| 2026-05-05 01:00 | 40.78071 | -2.64532 | 13639 ft | 352 kts | 230° |
| 2026-05-05 01:00 | 40.76456 | -2.66953 | 12986 ft | 350 kts | 229° |
| 2026-05-05 01:00 | 40.74823 | -2.69313 | 12353 ft | 348 kts | 228° |
| 2026-05-05 01:01 | 40.73199 | -2.71563 | 11860 ft | 343 kts | 227° |
| 2026-05-05 01:01 | 40.71536 | -2.73810 | 11666 ft | 328 kts | 226° |
| 2026-05-05 01:01 | 40.69966 | -2.75904 | 11442 ft | 310 kts | 226° |
| 2026-05-05 01:01 | 40.68489 | -2.77868 | 11282 ft | 293 kts | 226° |
| 2026-05-05 01:02 | 40.67097 | -2.79716 | 11122 ft | 276 kts | 226° |
| 2026-05-05 01:02 | 40.65758 | -2.81418 | 10958 ft | 260 kts | 221° |
| 2026-05-05 01:02 | 40.64307 | -2.82778 | 10569 ft | 256 kts | 212° |
| 2026-05-05 01:02 | 40.62770 | -2.83983 | 10022 ft | 256 kts | 213° |
| 2026-05-05 01:03 | 40.61260 | -2.85192 | 9532 ft | 255 kts | 213° |
| 2026-05-05 01:03 | 40.59750 | -2.86410 | 9242 ft | 253 kts | 213° |
| 2026-05-05 01:03 | 40.58766 | -2.87205 | 9162 ft | 247 kts | 213° |
| 2026-05-05 01:03 | 40.56851 | -2.88752 | 8907 ft | 242 kts | 213° |
| 2026-05-05 01:04 | 40.55425 | -2.89900 | 8624 ft | 241 kts | 213° |
| 2026-05-05 01:04 | 40.52563 | -2.92209 | 8088 ft | 240 kts | 213° |
| 2026-05-05 01:04 | 40.51133 | -2.93356 | 7818 ft | 240 kts | 213° |
| 2026-05-05 01:05 | 40.50173 | -2.94124 | 7686 ft | 239 kts | 213° |
| 2026-05-05 01:05 | 40.48314 | -2.95616 | 7366 ft | 239 kts | 213° |
| 2026-05-05 01:05 | 40.47376 | -2.96371 | 7193 ft | 238 kts | 213° |
| 2026-05-05 01:05 | 40.45962 | -2.97505 | 6992 ft | 238 kts | 213° |
| 2026-05-05 01:06 | 40.44547 | -2.98638 | 6733 ft | 237 kts | 213° |
| 2026-05-05 01:06 | 40.43130 | -2.99774 | 6322 ft | 244 kts | 213° |
| 2026-05-05 01:06 | 40.41662 | -3.00951 | 5936 ft | 247 kts | 213° |
| 2026-05-05 01:06 | 40.40238 | -3.02098 | 5468 ft | 247 kts | 213° |
| 2026-05-05 01:07 | 40.38808 | -3.03239 | 5347 ft | 233 kts | 213° |
| 2026-05-05 01:07 | 40.37457 | -3.04319 | 5161 ft | 223 kts | 213° |
| 2026-05-05 01:07 | 40.36134 | -3.05370 | 4889 ft | 222 kts | 213° |
| 2026-05-05 01:07 | 40.34821 | -3.06416 | 4611 ft | 221 kts | 213° |
| 2026-05-05 01:08 | 40.33502 | -3.07468 | 4348 ft | 221 kts | 213° |
| 2026-05-05 01:08 | 40.32191 | -3.08516 | 4095 ft | 219 kts | 213° |
| 2026-05-05 01:08 | 40.30912 | -3.09541 | 3851 ft | 218 kts | 213° |
| 2026-05-05 01:08 | 40.29633 | -3.10566 | 3576 ft | 218 kts | 213° |
| 2026-05-05 01:09 | 40.28324 | -3.11610 | 3295 ft | 217 kts | 213° |
| 2026-05-05 01:09 | 40.27064 | -3.12636 | 3028 ft | 212 kts | 218° |
| 2026-05-05 01:09 | 40.26200 | -3.14132 | 3013 ft | 209 kts | 251° |
| 2026-05-05 01:09 | 40.26152 | -3.16018 | 3008 ft | 211 kts | 284° |
| 2026-05-05 01:10 | 40.26535 | -3.17878 | 3056 ft | 212 kts | 284° |
| 2026-05-05 01:10 | 40.26875 | -3.19706 | 3443 ft | 198 kts | 283° |
| 2026-05-05 01:10 | 40.27175 | -3.21417 | 3768 ft | 192 kts | 282° |
| 2026-05-05 01:10 | 40.27471 | -3.23115 | 3994 ft | 191 kts | 282° |
| 2026-05-05 01:11 | 40.27760 | -3.24818 | 4117 ft | 193 kts | 282° |
| 2026-05-05 01:11 | 40.28056 | -3.26538 | 4302 ft | 194 kts | 282° |
| 2026-05-05 01:11 | 40.28351 | -3.28256 | 4559 ft | 194 kts | 282° |
| 2026-05-05 01:11 | 40.28657 | -3.29988 | 4797 ft | 195 kts | 283° |
| 2026-05-05 01:12 | 40.28954 | -3.31721 | 4985 ft | 196 kts | 282° |
| 2026-05-05 01:12 | 40.29249 | -3.33455 | 4996 ft | 196 kts | 282° |
| 2026-05-05 01:12 | 40.29548 | -3.35209 | 5000 ft | 196 kts | 283° |
| 2026-05-05 01:12 | 40.29849 | -3.36957 | 5004 ft | 204 kts | 283° |
| 2026-05-05 01:13 | 40.30391 | -3.38725 | 5011 ft | 214 kts | 303° |
| 2026-05-05 01:13 | 40.31413 | -3.40176 | 5011 ft | 221 kts | 318° |
| 2026-05-05 01:13 | 40.32637 | -3.41445 | 4995 ft | 225 kts | 321° |
| 2026-05-05 01:13 | 40.33850 | -3.42676 | 4991 ft | 209 kts | 320° |
| 2026-05-05 01:14 | 40.34935 | -3.43785 | 4805 ft | 186 kts | 321° |
| 2026-05-05 01:14 | 40.35912 | -3.44780 | 4559 ft | 170 kts | 320° |
| 2026-05-05 01:14 | 40.36821 | -3.45708 | 4337 ft | 163 kts | 320° |
| 2026-05-05 01:14 | 40.37709 | -3.46623 | 4119 ft | 162 kts | 320° |
| 2026-05-05 01:15 | 40.38598 | -3.47522 | 3915 ft | 162 kts | 320° |
| 2026-05-05 01:15 | 40.39483 | -3.48430 | 3700 ft | 161 kts | 320° |
| 2026-05-05 01:15 | 40.40364 | -3.49322 | 3492 ft | 161 kts | 321° |
| 2026-05-05 01:15 | 40.41239 | -3.50221 | 3256 ft | 160 kts | 320° |
| 2026-05-05 01:16 | 40.42097 | -3.51092 | 3050 ft | 161 kts | 322° |
| 2026-05-05 01:16 | 40.42994 | -3.52007 | 2801 ft | 163 kts | 321° |
| 2026-05-05 01:16 | 40.43886 | -3.52917 | 2564 ft | 162 kts | 321° |
| 2026-05-05 01:16 | 40.44777 | -3.53816 | 2329 ft | 161 kts | 321° |
| 2026-05-05 01:17 | 40.45659 | -3.54713 | 2165 ft | 160 kts | 320° |
| 2026-05-05 01:17 | 40.46528 | -3.55609 | 2004 ft | 155 kts | 321° |
| 2026-05-05 01:17 | 40.47265 | -3.56366 | 1988 ft | 108 kts | 322° |
| 2026-05-05 01:17 | 40.47687 | -3.56796 | 1989 ft | 34 kts | 315° |
| 2026-05-05 01:18 | 40.47788 | -3.57007 | 1989 ft | 12 kts | 290° |
| 2026-05-05 01:18 | 40.47778 | -3.57081 | 1988 ft | 5 kts | 199° |
| 2026-05-05 01:18 | 40.47735 | -3.57080 | 1989 ft | 9 kts | 161° |
| 2026-05-05 01:18 | 40.47672 | -3.57044 | 1988 ft | 1 kts | 149° |
| 2026-05-05 01:19 | 40.47641 | -3.57020 | 1987 ft | 9 kts | 148° |
| 2026-05-05 01:19 | 40.47569 | -3.56953 | 1988 ft | 16 kts | 142° |
| 2026-05-05 01:19 | 40.47462 | -3.56846 | 1988 ft | 22 kts | 141° |
| 2026-05-05 01:19 | 40.47381 | -3.56793 | 1989 ft | 9 kts | 204° |
| 2026-05-05 01:20 | 40.47370 | -3.56843 | 1987 ft | 7 kts | 295° |
| 2026-05-05 01:20 | 40.47416 | -3.56904 | 1988 ft | 13 kts | 319° |
| 2026-05-05 01:20 | 40.47495 | -3.56989 | 1988 ft | 16 kts | 321° |
| 2026-05-05 01:20 | 40.47581 | -3.57079 | 1990 ft | 16 kts | 321° |
| 2026-05-05 01:21 | 40.47669 | -3.57172 | 1989 ft | 16 kts | 321° |
| 2026-05-05 01:21 | 40.47759 | -3.57265 | 1990 ft | 17 kts | 322° |
| 2026-05-05 01:21 | 40.47852 | -3.57358 | 1988 ft | 17 kts | 323° |
| 2026-05-05 01:21 | 40.47947 | -3.57450 | 1988 ft | 17 kts | 323° |
| 2026-05-05 01:22 | 40.48044 | -3.57544 | 1989 ft | 17 kts | 322° |
| 2026-05-05 01:22 | 40.48139 | -3.57641 | 1989 ft | 17 kts | 322° |
| 2026-05-05 01:22 | 40.48234 | -3.57738 | 1989 ft | 17 kts | 322° |
| 2026-05-05 01:22 | 40.48332 | -3.57834 | 1989 ft | 17 kts | 328° |
| 2026-05-05 01:23 | 40.48438 | -3.57860 | 1988 ft | 9 kts | 28° |
| 2026-05-05 01:23 | 40.48489 | -3.57850 | 1985 ft | 9 kts | 342° |
| 2026-05-05 01:23 | 40.48567 | -3.57894 | 1989 ft | 15 kts | 334° |
| 2026-05-05 01:23 | 40.48684 | -3.57945 | 1987 ft | 19 kts | 357° |
| 2026-05-05 01:24 | 40.48761 | -3.57853 | 1986 ft | 17 kts | 85° |
| 2026-05-05 01:24 | 40.48766 | -3.57687 | 1989 ft | 20 kts | 88° |
| 2026-05-05 01:24 | 40.48769 | -3.57476 | 1988 ft | 25 kts | 89° |
| 2026-05-05 01:24 | 40.48772 | -3.57244 | 1988 ft | 26 kts | 89° |
| 2026-05-05 01:25 | 40.48774 | -3.57005 | 1988 ft | 26 kts | 90° |
| 2026-05-05 01:25 | 40.48773 | -3.56762 | 1987 ft | 27 kts | 90° |
| 2026-05-05 01:25 | 40.48811 | -3.56567 | 1989 ft | 20 kts | 33° |
| 2026-05-05 01:25 | 40.48934 | -3.56549 | 1988 ft | 18 kts | 360° |
| 2026-05-05 01:26 | 40.49053 | -3.56550 | 1985 ft | 19 kts | 360° |
| 2026-05-05 01:26 | 40.49184 | -3.56550 | 1986 ft | 19 kts | 360° |
| 2026-05-05 01:26 | 40.49317 | -3.56550 | 1985 ft | 19 kts | 360° |
| 2026-05-05 01:26 | 40.49451 | -3.56552 | 1985 ft | 19 kts | 359° |
| 2026-05-05 01:27 | 40.49571 | -3.56554 | 1985 ft | 14 kts | 359° |
| 2026-05-05 01:27 | 40.49672 | -3.56555 | 1989 ft | 15 kts | 359° |
| 2026-05-05 01:27 | 40.49780 | -3.56556 | 1987 ft | 12 kts | 360° |
| 2026-05-05 01:27 | 40.49830 | -3.56576 | 1986 ft | 5 kts | 305° |
| 2026-05-05 01:28 | 40.49834 | -3.56614 | 1989 ft | 5 kts | 270° |
| 2026-05-05 01:28 | 40.49835 | -3.56645 | 1988 ft | 1 kts | 272° |
| 2026-05-05 01:28 | 40.49835 | -3.56646 | 1988 ft | 0 kts | 272° |
| 2026-05-05 01:30 | 40.49835 | -3.56651 | 1988 ft | 1 kts | 272° |
| 2026-05-05 01:31 | 40.49835 | -3.56653 | 1988 ft | 0 kts | 272° |